Impacts TAF Board INFO
FOR SITUATIONAL AWARENESS. NOT TO BE USED FOR FLIGHT PLANNING PURPOSES.
IDs:

KMCI - Kansas City Intl, MO, US

Issued at 1730 UTC 25 May 2017
Updated at 1812 UTC 25 May 2017
Potential Impact None Slight Moderate High
Time1753Z 25/19Z 25/20Z 25/21Z 25/22Z 25/23Z 26/00Z 26/01Z 26/02Z 26/03Z 26/04Z 26/05Z 26/06Z 26/07Z>>
Type OBS PRVL PRVL PRVL PRVL PRVL PRVL PRVL PRVL PRVL PRVL PRVL PRVL PRVL
VIS 10 >6 >6 >6 >6 >6 >6 >6 >6 >6 >6 >6 >6 >6
CIG -- -- -- -- -- -- -- -- -- -- -- -- 100 100
Cover FEW FEW FEW FEW FEW FEW FEW SCT SCT SCT SCT SCT BKN BKN
FltCat VFR VFR VFR VFR VFR VFR VFR VFR VFR VFR VFR VFR VFR VFR
WX -- -- -- -- -- -- -- -- -- -- -- -- -- --
WDir 150 160 160 160 160 160 160 150 150 150 150 150 130 130
WSpd 10 12 12 12 12 12 12 8 8 8 8 8 6 6
WGst 17 -- -- -- -- -- -- -- -- -- -- -- -- --

Raw TAF
KMCI 251730Z 2518/2618 16012KT P6SM FEW140
  FM260100 15008KT P6SM SCT250
  FM260600 13006KT P6SM BKN100
  FM261400 VRB05KT P6SM SCT035


Raw METAR
KMCI 251753Z 15010G17KT 10SM FEW100 22/11 A2967 RMK AO2 SLP042 T02220106 10222 20106 58016
KMCI 251653Z 16010KT 10SM FEW030 FEW100 21/11 A2969 RMK AO2 SLP048 T02110106
KMCI 251553Z 16011KT 10SM FEW030 FEW100 20/11 A2970 RMK AO2 SLP052 T02000106

METAR Board
Radar Display
Forecast Discussion

FOR SITUATIONAL AWARENESS. NOT TO BE USED FOR FLIGHT PLANNING PURPOSES.

Page loaded:  18:12 UTC  |   11:12 AM Pacific  |   12:12 PM Mountain  |   01:12 PM Central  |   02:12 PM Eastern

 

ADVISORIES

FORECASTS

FORECASTS

OBSERVATIONS

USER TOOLS

ABOUT US